Odd, West Virginia
Current Conditions -  °F | °C
As of 9:51 AM on Thursday 23 Oct 2014 (Local Time) from KBKW Reporting Station
Overcast Overcast  
Wind Chill: 38°   Ceiling: 800
Heat Index: 43°   Visibility: 10mi
Dew Point: 39°   Wind: 9mph
Humidity: 86%   Direction: 340°NNW
Pressure: 30.18"   Gusts: NA
Location:  37.59°N, 81.19°W
Report Text: KBKW 231351Z AUTO 34008KT 10SM OVC008 06/04 A3018 RMK AO2 SLP232 T00610039 TSNO
Loading
Personal Weather Stations






























Interactive Weather Map
Tropical Storm Tracking
New forecast layout! Learn more

10-Day Weather Forecast

Advertisements
Track Severe Weather on mobile